Time;durP1;ratioP1;P1;durP2;ratioP2;P2;SDS_P1;SDS_P2;PMS_P1;PMS_P2;Temp;Humidity;BMP_temperature;BMP_pressure;BME280_temperature;BME280_humidity;BME280_pressure;Samples;Min_cycle;Max_cycle;Signal;HPM_P1;HPM_P2
2023/10/19 00:00:19;;;;;;;34.50;23.80;;;11.60;85.90;;;;;;5087955;28;20471;-79
2023/10/19 00:02:54;;;;;;;37.43;24.90;;;11.60;85.80;;;;;;5069579;28;20520;-78
2023/10/19 00:05:26;;;;;;;33.90;23.50;;;11.60;85.80;;;;;;5071493;28;20461;-77
2023/10/19 00:07:57;;;;;;;39.00;25.37;;;11.60;85.80;;;;;;5067948;28;21022;-77
2023/10/19 00:10:29;;;;;;;38.77;25.70;;;11.60;85.80;;;;;;5057320;28;20461;-76
2023/10/19 00:13:03;;;;;;;36.27;24.17;;;11.60;85.90;;;;;;5071485;28;20469;-78
2023/10/19 00:15:34;;;;;;;37.63;26.07;;;11.60;85.90;;;;;;5062502;28;20589;-77
2023/10/19 00:18:08;;;;;;;37.30;25.60;;;11.60;85.90;;;;;;5048031;28;20473;-80
2023/10/19 00:20:49;;;;;;;39.07;25.97;;;11.60;85.90;;;;;;5053456;28;20490;-77
2023/10/19 00:23:18;;;;;;;39.20;25.60;;;11.60;86.00;;;;;;5067024;28;20529;-77
2023/10/19 00:25:50;;;;;;;32.97;25.50;;;11.70;86.00;;;;;;5074816;28;20453;-78
2023/10/19 00:28:22;;;;;;;42.33;27.80;;;11.70;85.90;;;;;;5067273;28;20463;-77
2023/10/19 00:30:51;;;;;;;38.87;26.30;;;11.70;85.90;;;;;;5055445;28;20477;-78
2023/10/19 00:33:21;;;;;;;39.37;27.53;;;11.70;85.90;;;;;;5071586;28;20504;-80
2023/10/19 00:36:00;;;;;;;43.73;29.90;;;11.70;85.90;;;;;;5072243;28;20449;-81
2023/10/19 00:38:39;;;;;;;44.60;30.97;;;11.70;85.90;;;;;;5047990;28;20503;-78
2023/10/19 00:41:13;;;;;;;44.77;30.77;;;11.60;86.00;;;;;;5070687;28;20453;-78
2023/10/19 00:43:44;;;;;;;46.80;31.00;;;11.60;86.00;;;;;;5046980;28;20460;-77
2023/10/19 00:46:20;;;;;;;44.13;30.00;;;11.60;86.10;;;;;;5071856;28;20788;-76
2023/10/19 00:48:55;;;;;;;48.60;30.97;;;11.60;86.20;;;;;;5072470;28;20573;-80
2023/10/19 00:51:32;;;;;;;51.23;32.93;;;11.60;86.20;;;;;;5052789;28;20453;-77
2023/10/19 00:54:08;;;;;;;47.73;31.47;;;11.60;86.20;;;;;;5050581;28;20948;-79
2023/10/19 00:56:37;;;;;;;49.80;33.80;;;11.60;86.30;;;;;;5050481;28;21301;-81
2023/10/19 00:59:14;;;;;;;52.00;33.70;;;11.70;86.30;;;;;;5072639;28;20454;-77
2023/10/19 01:01:45;;;;;;;52.63;33.13;;;11.60;86.30;;;;;;5084400;28;20482;-78
2023/10/19 01:04:16;;;;;;;54.50;34.70;;;11.60;86.40;;;;;;5099459;28;20466;-78
2023/10/19 01:06:59;;;;;;;58.07;34.47;;;11.60;86.30;;;;;;5067644;28;20469;-79
2023/10/19 01:09:28;;;;;;;58.10;37.10;;;11.60;86.40;;;;;;5093403;28;20453;-79
2023/10/19 01:12:02;;;;;;;57.93;34.43;;;11.60;86.40;;;;;;5091226;28;21765;-77
2023/10/19 01:14:32;;;;;;;58.03;35.60;;;11.60;86.50;;;;;;5070543;28;20551;-77
2023/10/19 01:17:02;;;;;;;54.80;34.13;;;11.60;86.50;;;;;;5087477;28;20467;-78
2023/10/19 01:19:30;;;;;;;59.40;35.60;;;11.60;86.60;;;;;;5079919;28;20548;-78
2023/10/19 01:22:04;;;;;;;52.00;33.70;;;11.60;86.60;;;;;;5095361;28;20449;-81
2023/10/19 01:24:40;;;;;;;53.60;33.70;;;11.70;86.70;;;;;;5096883;28;20452;-78
2023/10/19 01:27:10;;;;;;;55.40;34.83;;;11.70;86.70;;;;;;5092277;28;20603;-77
2023/10/19 01:29:39;;;;;;;55.40;32.70;;;11.70;86.80;;;;;;5096103;28;20452;-78
2023/10/19 01:32:08;;;;;;;60.40;36.17;;;11.70;86.70;;;;;;5094892;28;20468;-81
2023/10/19 01:34:37;;;;;;;52.97;33.87;;;11.80;86.70;;;;;;5067943;28;20487;-80
2023/10/19 01:37:05;;;;;;;55.73;34.33;;;11.80;86.70;;;;;;5079918;28;20564;-82
2023/10/19 01:39:36;;;;;;;60.80;37.43;;;11.80;86.70;;;;;;5080073;28;20563;-80
2023/10/19 01:42:05;;;;;;;56.63;35.00;;;11.80;86.80;;;;;;5098700;28;20452;-79
2023/10/19 01:44:35;;;;;;;54.40;34.37;;;11.80;86.80;;;;;;5096018;28;20527;-79
2023/10/19 01:47:05;;;;;;;57.80;35.80;;;11.90;86.80;;;;;;5091000;28;20441;-79
2023/10/19 01:49:33;;;;;;;53.73;33.07;;;11.90;86.80;;;;;;5072262;28;20451;-81
2023/10/19 01:52:01;;;;;;;56.23;34.90;;;11.90;86.80;;;;;;5076598;28;20472;-80
2023/10/19 01:54:29;;;;;;;53.03;32.70;;;11.90;86.90;;;;;;5078031;28;20507;-77
2023/10/19 01:56:59;;;;;;;53.47;34.23;;;11.90;86.90;;;;;;5075281;28;20483;-76
2023/10/19 01:59:29;;;;;;;54.67;33.30;;;12.00;86.90;;;;;;5077574;28;20460;-79
2023/10/19 02:01:57;;;;;;;58.07;35.03;;;12.00;86.80;;;;;;5071785;28;20648;-77
2023/10/19 02:04:25;;;;;;;57.60;32.63;;;12.00;86.80;;;;;;5104576;28;20826;-78
2023/10/19 02:06:54;;;;;;;51.93;33.60;;;12.00;86.80;;;;;;5089332;28;20798;-79
2023/10/19 02:09:22;;;;;;;54.00;33.50;;;12.00;86.80;;;;;;5096169;28;20548;-79
2023/10/19 02:11:55;;;;;;;59.77;33.77;;;12.10;86.90;;;;;;5074676;28;20961;-80
2023/10/19 02:14:29;;;;;;;54.43;33.53;;;12.10;86.90;;;;;;5078734;28;20505;-77
2023/10/19 02:17:01;;;;;;;48.73;32.50;;;12.10;86.90;;;;;;5081479;28;20459;-80
2023/10/19 02:19:31;;;;;;;55.67;32.60;;;12.20;86.90;;;;;;5068053;28;20493;-81
2023/10/19 02:22:03;;;;;;;51.47;32.50;;;12.20;86.80;;;;;;5086695;28;20563;-79
2023/10/19 02:24:32;;;;;;;55.93;33.17;;;12.20;86.80;;;;;;5072560;28;20456;-78
2023/10/19 02:27:02;;;;;;;48.30;32.30;;;12.20;86.70;;;;;;5090954;28;20794;-80
2023/10/19 02:29:36;;;;;;;53.00;32.40;;;12.20;86.70;;;;;;5078858;28;20464;-80
2023/10/19 02:32:03;;;;;;;55.67;33.07;;;12.20;86.80;;;;;;5095214;28;20886;-77
2023/10/19 02:34:31;;;;;;;53.40;32.70;;;12.30;86.70;;;;;;5078118;28;20472;-78
2023/10/19 02:37:00;;;;;;;53.93;33.63;;;12.30;86.70;;;;;;5078098;28;20452;-81
2023/10/19 02:39:28;;;;;;;49.83;31.17;;;12.30;86.70;;;;;;5077997;28;20514;-80
2023/10/19 02:41:56;;;;;;;49.70;31.47;;;12.30;86.70;;;;;;5075166;28;20460;-78
2023/10/19 02:44:25;;;;;;;55.87;32.43;;;12.30;86.70;;;;;;5096575;28;20819;-80
2023/10/19 02:46:58;;;;;;;53.43;34.13;;;12.30;86.70;;;;;;5105155;28;20451;-80
2023/10/19 02:49:29;;;;;;;49.37;32.80;;;12.30;86.70;;;;;;5093030;28;20462;-77
2023/10/19 02:52:02;;;;;;;54.37;34.40;;;12.30;86.70;;;;;;5091169;28;20469;-78
2023/10/19 02:54:32;;;;;;;49.57;31.40;;;12.40;86.70;;;;;;5095407;28;20490;-78
2023/10/19 02:57:00;;;;;;;58.70;35.47;;;12.40;86.70;;;;;;5078576;28;21644;-78
2023/10/19 02:59:29;;;;;;;52.17;32.13;;;12.40;86.70;;;;;;5072576;28;20453;-79
2023/10/19 03:02:00;;;;;;;58.33;33.17;;;12.40;86.70;;;;;;5098314;28;20480;-78
2023/10/19 03:04:30;;;;;;;57.30;33.10;;;12.40;86.70;;;;;;5100476;28;20528;-79
2023/10/19 03:06:59;;;;;;;55.50;34.30;;;12.40;86.70;;;;;;5082622;28;20448;-79
2023/10/19 03:09:29;;;;;;;59.97;34.70;;;12.40;86.70;;;;;;5079538;28;20460;-78
2023/10/19 03:12:03;;;;;;;56.57;33.53;;;12.40;86.70;;;;;;5079750;28;20476;-78
2023/10/19 03:14:31;;;;;;;51.60;33.03;;;12.40;86.80;;;;;;5077612;28;20487;-77
2023/10/19 03:17:02;;;;;;;42.47;29.60;;;12.40;86.80;;;;;;5081473;28;20456;-78
2023/10/19 03:19:29;;;;;;;48.07;29.40;;;12.40;86.80;;;;;;5083783;28;20872;-79
2023/10/19 03:22:00;;;;;;;43.07;28.07;;;12.40;86.80;;;;;;5076596;28;20463;-78
2023/10/19 03:24:36;;;;;;;44.20;28.57;;;12.40;86.70;;;;;;5081208;28;20945;-77
2023/10/19 03:27:12;;;;;;;45.07;30.27;;;12.40;86.70;;;;;;5074755;28;20492;-78
2023/10/19 03:29:45;;;;;;;39.70;26.63;;;12.40;86.70;;;;;;5081787;28;20479;-78
2023/10/19 03:32:16;;;;;;;52.47;31.07;;;12.50;86.60;;;;;;5075103;28;20470;-80
2023/10/19 03:34:47;;;;;;;41.80;25.50;;;12.50;86.60;;;;;;5101758;28;20545;-80
2023/10/19 03:37:19;;;;;;;41.10;25.80;;;12.40;86.60;;;;;;5079952;28;20533;-77
2023/10/19 03:39:47;;;;;;;44.03;28.90;;;12.50;86.60;;;;;;5094643;28;20483;-79
2023/10/19 03:42:15;;;;;;;41.60;27.50;;;12.50;86.60;;;;;;5098048;28;21144;-76
2023/10/19 03:44:51;;;;;;;36.73;23.70;;;12.50;86.60;;;;;;5096806;28;20448;-79
2023/10/19 03:47:27;;;;;;;33.50;23.17;;;12.50;86.60;;;;;;5078860;28;20454;-80
2023/10/19 03:49:56;;;;;;;39.73;25.50;;;12.50;86.60;;;;;;5079969;28;20448;-79
2023/10/19 03:52:30;;;;;;;38.27;24.80;;;12.50;86.50;;;;;;5085019;28;20970;-77
2023/10/19 03:54:58;;;;;;;34.03;23.30;;;12.40;86.50;;;;;;5077481;28;20519;-77
2023/10/19 03:57:29;;;;;;;36.90;23.23;;;12.40;86.50;;;;;;5081535;28;20452;-79
2023/10/19 03:59:59;;;;;;;33.87;23.70;;;12.40;86.50;;;;;;5082757;28;20498;-80
2023/10/19 04:02:35;;;;;;;35.93;22.20;;;12.50;86.40;;;;;;5081208;28;20461;-79
2023/10/19 04:05:04;;;;;;;33.80;21.97;;;12.50;86.40;;;;;;5093350;28;20480;-78
2023/10/19 04:07:32;;;;;;;32.30;21.83;;;12.40;86.40;;;;;;5074400;28;20958;-78
2023/10/19 04:10:29;;;;;;;34.03;23.47;;;12.50;86.40;;;;;;5094983;28;20459;-80
2023/10/19 04:13:00;;;;;;;35.47;23.73;;;12.50;86.30;;;;;;5095979;28;20484;-81
2023/10/19 04:15:33;;;;;;;38.67;25.47;;;12.50;86.30;;;;;;5071301;28;20516;-79
2023/10/19 04:18:08;;;;;;;32.80;21.63;;;12.50;86.30;;;;;;5094390;28;20463;-78
2023/10/19 04:20:54;;;;;;;35.13;23.77;;;12.50;86.30;;;;;;5096483;28;20532;-78
2023/10/19 04:23:26;;;;;;;32.43;21.73;;;12.50;86.30;;;;;;5093424;28;20459;-78
2023/10/19 04:25:58;;;;;;;32.63;21.97;;;12.50;86.20;;;;;;5092262;28;20498;-76
2023/10/19 04:28:33;;;;;;;37.37;25.63;;;12.50;86.20;;;;;;5097567;28;20460;-79
2023/10/19 04:31:02;;;;;;;42.77;26.20;;;12.50;86.20;;;;;;5102133;28;20558;-77
2023/10/19 04:33:34;;;;;;;33.50;23.13;;;12.50;86.20;;;;;;5085409;28;20480;-77
2023/10/19 04:36:03;;;;;;;31.47;21.83;;;12.50;86.20;;;;;;5092019;28;20475;-79
2023/10/19 04:38:33;;;;;;;36.20;25.40;;;12.50;86.20;;;;;;5094254;28;20534;-79
2023/10/19 04:41:08;;;;;;;33.20;23.30;;;12.50;86.20;;;;;;5078859;28;20491;-80
2023/10/19 04:43:36;;;;;;;34.63;23.47;;;12.50;86.20;;;;;;5070932;28;20485;-79
2023/10/19 04:46:11;;;;;;;33.70;23.97;;;12.50;86.20;;;;;;5086513;28;20546;-80
2023/10/19 04:48:41;;;;;;;31.70;21.70;;;12.50;86.20;;;;;;5088892;28;20532;-79
2023/10/19 04:51:10;;;;;;;42.63;27.10;;;12.50;86.20;;;;;;5072503;28;20483;-78
2023/10/19 04:53:39;;;;;;;34.60;23.43;;;12.50;86.20;;;;;;5092919;28;20457;-79
2023/10/19 04:56:09;;;;;;;33.47;23.00;;;12.50;86.20;;;;;;5091273;28;20572;-79
2023/10/19 04:58:38;;;;;;;39.37;23.90;;;12.50;86.20;;;;;;5077514;28;20455;-77
2023/10/19 05:01:11;;;;;;;36.50;24.23;;;12.50;86.10;;;;;;5090195;28;21015;-76
2023/10/19 05:03:40;;;;;;;41.03;23.07;;;12.50;86.10;;;;;;5090264;28;20469;-78
2023/10/19 05:06:09;;;;;;;31.53;22.20;;;12.50;86.20;;;;;;5094263;28;20452;-78
2023/10/19 05:08:38;;;;;;;32.90;21.83;;;12.50;86.10;;;;;;5087924;28;20471;-78
2023/10/19 05:11:06;;;;;;;32.90;23.17;;;12.50;86.10;;;;;;5089570;28;20465;-77
2023/10/19 05:13:34;;;;;;;32.50;22.63;;;12.50;86.10;;;;;;5095511;28;20549;-76
2023/10/19 05:16:03;;;;;;;32.50;22.50;;;12.50;86.10;;;;;;5091726;28;21037;-78
2023/10/19 05:18:32;;;;;;;34.60;24.60;;;12.50;86.10;;;;;;5081440;28;20463;-77
2023/10/19 05:21:03;;;;;;;35.67;25.00;;;12.50;86.00;;;;;;5091856;28;21121;-78
2023/10/19 05:23:31;;;;;;;36.57;24.90;;;12.50;86.00;;;;;;5093616;28;20465;-78
2023/10/19 05:26:02;;;;;;;39.13;25.03;;;12.50;86.00;;;;;;5090163;28;20461;-77
2023/10/19 05:28:32;;;;;;;34.80;23.70;;;12.50;86.00;;;;;;5092039;28;20482;-77
2023/10/19 05:31:04;;;;;;;32.23;22.80;;;12.50;86.10;;;;;;5086003;28;20556;-78
2023/10/19 05:33:32;;;;;;;35.33;24.17;;;12.50;86.00;;;;;;5071680;28;20454;-79
2023/10/19 05:36:03;;;;;;;38.60;25.70;;;12.50;86.00;;;;;;5068574;28;20826;-78
2023/10/19 05:38:32;;;;;;;32.70;23.63;;;12.50;86.00;;;;;;5070241;28;20457;-79
2023/10/19 05:41:00;;;;;;;34.73;23.73;;;12.50;86.00;;;;;;5077235;28;20984;-78
2023/10/19 05:43:30;;;;;;;35.87;23.97;;;12.50;86.00;;;;;;5068916;28;21043;-78
2023/10/19 05:45:58;;;;;;;32.70;22.57;;;12.50;86.00;;;;;;5069256;28;20453;-78
2023/10/19 05:48:26;;;;;;;40.50;25.60;;;12.50;86.00;;;;;;5076084;28;20460;-79
2023/10/19 05:50:54;;;;;;;40.40;26.53;;;12.50;86.00;;;;;;5067259;28;20862;-77
2023/10/19 05:53:24;;;;;;;36.17;24.63;;;12.50;86.00;;;;;;5070880;28;20497;-78
2023/10/19 05:55:52;;;;;;;43.53;26.60;;;12.50;86.00;;;;;;5071802;28;20493;-77
2023/10/19 05:58:21;;;;;;;38.87;23.70;;;12.50;86.00;;;;;;5071766;28;20468;-77
2023/10/19 06:00:51;;;;;;;42.03;26.53;;;12.50;86.00;;;;;;5074900;28;20493;-78
2023/10/19 06:03:20;;;;;;;48.60;28.53;;;12.50;86.00;;;;;;5073378;28;21037;-78
2023/10/19 06:05:48;;;;;;;40.60;26.17;;;12.50;86.00;;;;;;5073122;28;20841;-77
2023/10/19 06:08:16;;;;;;;37.20;23.77;;;12.50;86.00;;;;;;5073999;28;20541;-78
2023/10/19 06:10:52;;;;;;;39.60;26.27;;;12.50;86.00;;;;;;5077020;28;20471;-77
2023/10/19 06:13:21;;;;;;;45.97;29.57;;;12.50;86.10;;;;;;5068945;28;20859;-77
2023/10/19 06:15:51;;;;;;;34.53;24.97;;;12.50;86.10;;;;;;5075532;28;20555;-79
2023/10/19 06:18:19;;;;;;;38.90;25.00;;;12.50;86.00;;;;;;5067944;28;20529;-77
2023/10/19 06:20:51;;;;;;;38.63;26.67;;;12.50;86.00;;;;;;5067160;28;20509;-78
2023/10/19 06:23:20;;;;;;;36.93;25.10;;;12.50;86.00;;;;;;5069707;28;20448;-77
2023/10/19 06:25:51;;;;;;;37.40;24.60;;;12.50;86.00;;;;;;5074130;28;20506;-79
2023/10/19 06:28:19;;;;;;;39.50;24.23;;;12.50;86.00;;;;;;5074942;28;20449;-77
2023/10/19 06:30:48;;;;;;;42.97;26.53;;;12.50;86.00;;;;;;5082359;28;21025;-77
2023/10/19 06:33:16;;;;;;;40.87;27.30;;;12.50;86.00;;;;;;5079776;28;20477;-78
2023/10/19 06:35:44;;;;;;;40.20;27.40;;;12.50;86.10;;;;;;5080827;28;20477;-78
2023/10/19 06:38:12;;;;;;;43.07;26.53;;;12.60;86.10;;;;;;5077797;28;20461;-77
2023/10/19 06:40:40;;;;;;;42.87;28.63;;;12.60;86.00;;;;;;5075960;28;20663;-80
2023/10/19 06:43:11;;;;;;;40.77;26.20;;;12.60;86.00;;;;;;5072090;28;20449;-77
2023/10/19 06:45:39;;;;;;;43.50;28.20;;;12.60;86.00;;;;;;5075610;28;20461;-79
2023/10/19 06:48:09;;;;;;;38.30;25.57;;;12.60;85.90;;;;;;5077019;28;20460;-78
2023/10/19 06:50:37;;;;;;;40.53;27.30;;;12.60;86.00;;;;;;5071534;28;20507;-78
2023/10/19 06:53:06;;;;;;;42.33;26.40;;;12.60;85.90;;;;;;5071918;28;20908;-78
2023/10/19 06:55:34;;;;;;;44.73;28.80;;;12.60;85.90;;;;;;5077662;28;20474;-77
2023/10/19 06:58:02;;;;;;;45.70;30.10;;;12.60;85.90;;;;;;5074583;28;20555;-78
2023/10/19 07:00:33;;;;;;;51.47;30.47;;;12.60;86.00;;;;;;5071789;28;20484;-78
2023/10/19 07:03:02;;;;;;;51.37;29.33;;;12.60;86.00;;;;;;5075302;28;20514;-77
2023/10/19 07:05:30;;;;;;;41.23;27.00;;;12.70;86.00;;;;;;5073938;28;20503;-77
2023/10/19 07:07:59;;;;;;;42.40;26.47;;;12.70;86.00;;;;;;5080697;28;21140;-77
2023/10/19 07:10:28;;;;;;;44.27;28.07;;;12.70;86.00;;;;;;5075396;28;20446;-77
2023/10/19 07:12:57;;;;;;;45.73;27.90;;;12.70;86.00;;;;;;5078521;28;20465;-78
2023/10/19 07:15:26;;;;;;;41.93;28.10;;;12.70;86.10;;;;;;5076826;28;20499;-77
2023/10/19 07:17:58;;;;;;;42.97;27.73;;;12.70;86.10;;;;;;5063129;28;20458;-78
2023/10/19 07:20:28;;;;;;;40.33;25.03;;;12.70;86.10;;;;;;5073883;28;20449;-78
2023/10/19 07:23:00;;;;;;;41.00;27.10;;;12.70;86.00;;;;;;5074373;28;20535;-77
2023/10/19 07:25:29;;;;;;;45.77;26.07;;;12.70;86.00;;;;;;5075173;28;20441;-77
2023/10/19 07:27:59;;;;;;;48.63;28.37;;;12.70;86.00;;;;;;5076582;28;22304;-77
2023/10/19 07:30:28;;;;;;;43.93;27.60;;;12.80;86.00;;;;;;5095584;28;20465;-77
2023/10/19 07:32:59;;;;;;;63.87;34.60;;;12.70;86.10;;;;;;5076495;28;20446;-77
2023/10/19 07:35:27;;;;;;;48.60;28.47;;;12.70;86.10;;;;;;5073907;28;20444;-77
2023/10/19 07:37:56;;;;;;;44.40;29.57;;;12.80;86.10;;;;;;5079809;28;20455;-77
2023/10/19 07:40:25;;;;;;;48.07;29.13;;;12.80;86.10;;;;;;5078437;28;20547;-77
2023/10/19 07:42:54;;;;;;;45.30;28.63;;;12.80;86.10;;;;;;5071160;28;20468;-78
2023/10/19 07:45:23;;;;;;;45.30;28.13;;;12.80;86.10;;;;;;5066497;28;20536;-77
2023/10/19 07:47:51;;;;;;;49.10;28.40;;;12.80;86.10;;;;;;5075635;28;20449;-77
2023/10/19 07:50:22;;;;;;;58.27;31.33;;;12.80;86.10;;;;;;5073898;28;20467;-77
2023/10/19 07:52:53;;;;;;;54.03;30.17;;;12.90;86.20;;;;;;5073996;28;20920;-77
2023/10/19 07:55:23;;;;;;;62.03;32.97;;;12.80;86.20;;;;;;5065243;28;20454;-78
2023/10/19 07:57:52;;;;;;;56.40;32.43;;;12.90;86.30;;;;;;5072854;28;20483;-77
2023/10/19 08:00:23;;;;;;;54.13;31.23;;;12.90;86.40;;;;;;5075771;28;20532;-77
2023/10/19 08:02:53;;;;;;;74.03;38.37;;;12.90;86.40;;;;;;5075829;28;20960;-76
2023/10/19 08:05:23;;;;;;;65.93;36.37;;;12.90;86.40;;;;;;5081798;28;20445;-77
2023/10/19 08:07:51;;;;;;;66.20;35.87;;;12.90;86.50;;;;;;5072767;28;20564;-77
2023/10/19 08:10:21;;;;;;;64.03;35.80;;;12.90;86.60;;;;;;5068085;28;20561;-77
2023/10/19 08:12:50;;;;;;;77.37;39.13;;;12.90;86.70;;;;;;5070582;28;21300;-77
2023/10/19 08:15:20;;;;;;;64.37;35.57;;;12.90;86.70;;;;;;5067878;28;20509;-78
2023/10/19 08:17:50;;;;;;;76.33;37.00;;;12.90;86.80;;;;;;5069369;28;20676;-77
2023/10/19 08:20:22;;;;;;;74.90;38.07;;;13.00;86.80;;;;;;5074511;28;20464;-77
2023/10/19 08:22:54;;;;;;;76.87;38.43;;;13.00;86.80;;;;;;5074248;28;20531;-77
2023/10/19 08:25:23;;;;;;;72.13;36.80;;;13.00;86.80;;;;;;5077619;28;20536;-78
2023/10/19 08:27:51;;;;;;;71.50;37.80;;;13.00;86.80;;;;;;5075175;28;20454;-77
2023/10/19 08:30:21;;;;;;;86.37;38.90;;;13.00;86.80;;;;;;5076867;28;20453;-77
2023/10/19 08:32:56;;;;;;;75.13;36.20;;;13.00;86.70;;;;;;5075587;28;20752;-78
2023/10/19 08:35:25;;;;;;;75.07;37.47;;;13.00;86.80;;;;;;5076155;28;20461;-77
2023/10/19 08:37:57;;;;;;;69.93;38.10;;;13.00;86.80;;;;;;5074765;28;20477;-78
2023/10/19 08:40:28;;;;;;;69.53;36.33;;;13.00;86.90;;;;;;5077213;28;20456;-78
2023/10/19 08:42:56;;;;;;;85.43;39.57;;;13.00;86.90;;;;;;5077390;28;20442;-78
2023/10/19 08:45:25;;;;;;;79.97;37.70;;;13.10;87.00;;;;;;5071115;28;20471;-78
2023/10/19 08:47:57;;;;;;;75.47;37.23;;;13.10;87.00;;;;;;5067256;28;20511;-77
2023/10/19 08:50:33;;;;;;;77.83;38.27;;;13.10;87.10;;;;;;5069220;28;20531;-76
2023/10/19 08:53:08;;;;;;;80.43;40.77;;;13.10;87.10;;;;;;5075026;28;20456;-78
2023/10/19 08:55:36;;;;;;;90.50;43.13;;;13.20;87.20;;;;;;5076494;28;20457;-77
2023/10/19 08:58:17;;;;;;;79.47;40.90;;;13.20;87.30;;;;;;5075456;28;20488;-77
2023/10/19 09:00:53;;;;;;;89.23;43.30;;;13.30;87.20;;;;;;5073010;28;20464;-77
2023/10/19 09:03:22;;;;;;;79.23;40.40;;;13.30;87.20;;;;;;5071201;28;20468;-78
2023/10/19 09:05:50;;;;;;;89.70;41.13;;;13.40;87.20;;;;;;5071729;28;20456;-77
2023/10/19 09:08:22;;;;;;;91.70;39.53;;;13.40;87.10;;;;;;5076766;28;20471;-77
2023/10/19 09:10:53;;;;;;;76.80;39.00;;;13.50;87.20;;;;;;5067823;28;20515;-77
2023/10/19 09:13:22;;;;;;;87.90;40.17;;;13.50;87.20;;;;;;5066925;28;20453;-77
2023/10/19 09:15:53;;;;;;;81.87;38.50;;;13.50;87.40;;;;;;5071917;28;20998;-77
2023/10/19 09:18:23;;;;;;;85.47;40.00;;;13.50;87.40;;;;;;5072020;28;20568;-78
2023/10/19 09:20:53;;;;;;;73.53;37.97;;;13.50;87.50;;;;;;5070410;28;20450;-77
2023/10/19 09:23:27;;;;;;;56.80;27.90;;;13.60;87.60;;;;;;5076317;28;20816;-79
2023/10/19 09:25:57;;;;;;;52.77;26.70;;;13.60;87.50;;;;;;5070497;28;20461;-78
2023/10/19 09:28:26;;;;;;;85.83;25.73;;;13.70;87.80;;;;;;5072399;28;20990;-80
2023/10/19 09:30:54;;;;;;;59.50;27.37;;;13.70;87.90;;;;;;5071187;28;20512;-78
2023/10/19 09:33:24;;;;;;;65.90;32.93;;;13.80;88.00;;;;;;5075450;28;20532;-78
2023/10/19 09:35:52;;;;;;;71.87;37.27;;;13.90;88.00;;;;;;5070821;28;20461;-77
2023/10/19 09:38:24;;;;;;;63.77;32.90;;;14.00;87.80;;;;;;5071064;28;20485;-77
2023/10/19 09:40:54;;;;;;;74.13;38.07;;;14.00;87.80;;;;;;5069979;28;20536;-77
2023/10/19 09:43:30;;;;;;;86.37;40.70;;;14.10;87.70;;;;;;5076332;28;20446;-77
2023/10/19 09:46:01;;;;;;;80.93;40.17;;;14.10;87.80;;;;;;5074797;28;20455;-78
2023/10/19 09:48:29;;;;;;;74.67;38.53;;;14.10;87.90;;;;;;5076452;28;20962;-78
2023/10/19 09:50:58;;;;;;;90.93;42.23;;;14.20;88.00;;;;;;5070957;28;20454;-78
2023/10/19 09:53:29;;;;;;;86.40;41.87;;;14.20;88.00;;;;;;5071926;28;20851;-78
2023/10/19 09:55:59;;;;;;;89.70;42.73;;;14.30;88.20;;;;;;5070508;28;20461;-77
2023/10/19 09:58:31;;;;;;;87.50;42.20;;;14.30;88.30;;;;;;5072142;28;20476;-78
2023/10/19 10:01:02;;;;;;;90.33;41.67;;;14.40;88.40;;;;;;5073451;28;21815;-78
2023/10/19 10:03:46;;;;;;;84.43;41.10;;;14.50;88.30;;;;;;5082585;28;20461;-78
2023/10/19 10:06:16;;;;;;;85.77;41.77;;;14.60;88.40;;;;;;5077802;28;20546;-77
2023/10/19 10:08:47;;;;;;;89.23;42.53;;;14.60;88.50;;;;;;5075921;28;21323;-77
2023/10/19 10:11:18;;;;;;;91.53;43.17;;;14.70;88.70;;;;;;5075295;28;20995;-77
2023/10/19 10:13:50;;;;;;;92.00;44.17;;;14.80;88.70;;;;;;5082703;28;20449;-78
2023/10/19 10:16:21;;;;;;;98.23;44.10;;;14.90;88.80;;;;;;5072731;28;20457;-77
2023/10/19 10:18:51;;;;;;;90.37;44.03;;;14.90;88.80;;;;;;5074577;28;20494;-78
2023/10/19 10:21:21;;;;;;;76.30;40.00;;;15.00;88.90;;;;;;5073299;28;20461;-78
2023/10/19 10:23:53;;;;;;;80.93;40.20;;;15.10;88.80;;;;;;5076951;28;20460;-77
2023/10/19 10:26:24;;;;;;;85.27;42.23;;;15.20;88.80;;;;;;5074510;28;20536;-77
2023/10/19 10:29:14;;;;;;;74.50;39.53;;;15.20;88.80;;;;;;5073694;28;20449;-78
2023/10/19 10:31:43;;;;;;;78.00;43.07;;;15.30;88.90;;;;;;5072117;28;20472;-77
2023/10/19 10:34:12;;;;;;;78.23;40.40;;;15.30;88.90;;;;;;5074722;28;20453;-77
2023/10/19 10:37:02;;;;;;;82.77;40.93;;;15.30;89.00;;;;;;5077622;28;20453;-78
2023/10/19 10:39:32;;;;;;;86.07;42.53;;;15.40;89.00;;;;;;5074174;28;20544;-77
2023/10/19 10:42:02;;;;;;;70.93;37.90;;;15.40;89.00;;;;;;5079257;28;20449;-77
2023/10/19 10:44:39;;;;;;;73.70;37.00;;;15.40;88.90;;;;;;5073255;28;20455;-78
2023/10/19 10:47:09;;;;;;;72.90;38.87;;;15.40;88.90;;;;;;5075846;28;20518;-77
2023/10/19 10:49:51;;;;;;;78.13;39.57;;;15.40;89.00;;;;;;5075190;28;20449;-77
2023/10/19 10:52:28;;;;;;;73.27;36.77;;;15.50;89.00;;;;;;5079825;28;20466;-78
2023/10/19 10:55:00;;;;;;;83.37;39.80;;;15.50;88.90;;;;;;5072199;28;20492;-77
2023/10/19 10:57:34;;;;;;;74.83;39.17;;;15.50;89.00;;;;;;5076151;28;21021;-77
2023/10/19 11:00:15;;;;;;;77.13;41.07;;;15.50;89.00;;;;;;5076368;28;20464;-78
2023/10/19 11:02:45;;;;;;;72.13;39.40;;;15.50;88.90;;;;;;5081241;28;20547;-77
2023/10/19 11:05:24;;;;;;;83.60;40.27;;;15.50;88.90;;;;;;5079534;28;20787;-77
2023/10/19 11:08:09;;;;;;;78.47;39.40;;;15.50;88.90;;;;;;5077272;28;20445;-78
2023/10/19 11:10:39;;;;;;;75.80;38.87;;;15.60;88.90;;;;;;5076802;28;20503;-77
2023/10/19 11:13:08;;;;;;;79.57;40.50;;;15.50;88.80;;;;;;5074753;28;20441;-77
2023/10/19 11:15:37;;;;;;;95.03;39.40;;;15.50;88.70;;;;;;5075247;28;20449;-78
2023/10/19 11:18:07;;;;;;;78.10;39.50;;;15.50;88.80;;;;;;5074001;28;21056;-77
2023/10/19 11:20:35;;;;;;;82.77;38.40;;;15.50;88.80;;;;;;5071897;28;20446;-77
2023/10/19 11:23:05;;;;;;;78.47;39.70;;;15.50;88.80;;;;;;5065886;28;20453;-77
2023/10/19 11:25:33;;;;;;;80.77;40.47;;;15.50;88.80;;;;;;5073621;28;20456;-77
2023/10/19 11:28:16;;;;;;;78.37;39.90;;;15.50;88.80;;;;;;5077690;28;20456;-77
2023/10/19 11:30:48;;;;;;;91.53;43.50;;;15.60;88.80;;;;;;5073101;28;20480;-78
2023/10/19 11:33:21;;;;;;;90.10;41.67;;;15.50;88.90;;;;;;5073186;28;20522;-78
2023/10/19 11:35:49;;;;;;;94.50;42.83;;;15.40;89.00;;;;;;5074728;28;21337;-78
2023/10/19 11:38:18;;;;;;;91.13;41.90;;;15.40;89.10;;;;;;5078319;28;20566;-77
2023/10/19 11:40:46;;;;;;;97.10;43.23;;;15.40;89.20;;;;;;5080785;28;20449;-79
2023/10/19 11:43:17;;;;;;;102.27;44.20;;;15.40;89.20;;;;;;5072859;28;20458;-80
2023/10/19 11:45:45;;;;;;;96.13;43.30;;;15.40;89.10;;;;;;5076481;28;20810;-78
2023/10/19 11:48:14;;;;;;;108.03;45.40;;;15.50;89.00;;;;;;5077453;28;21102;-79
2023/10/19 11:50:42;;;;;;;94.03;44.43;;;15.50;89.00;;;;;;5076818;28;20483;-79
2023/10/19 11:53:10;;;;;;;98.83;45.13;;;15.50;89.10;;;;;;5077381;28;20458;-78
2023/10/19 11:55:41;;;;;;;98.03;45.20;;;15.50;89.10;;;;;;5075568;28;20454;-78
2023/10/19 11:58:13;;;;;;;88.10;44.17;;;15.50;89.10;;;;;;5079713;28;20483;-78
2023/10/19 12:00:44;;;;;;;86.37;41.40;;;15.60;89.00;;;;;;5074340;28;20549;-78
2023/10/19 12:03:14;;;;;;;82.90;40.70;;;15.60;88.90;;;;;;5069139;28;20459;-78
2023/10/19 12:05:43;;;;;;;87.67;42.00;;;15.60;88.80;;;;;;5075091;28;20453;-79
2023/10/19 12:08:11;;;;;;;83.30;41.70;;;15.60;88.80;;;;;;5073062;28;20901;-78
2023/10/19 12:10:39;;;;;;;99.40;42.97;;;15.60;88.80;;;;;;5077677;28;20461;-78
2023/10/19 12:13:08;;;;;;;94.83;43.93;;;15.70;88.80;;;;;;5076385;28;21075;-78
2023/10/19 12:15:36;;;;;;;100.37;43.50;;;15.60;88.80;;;;;;5069673;28;20446;-78
2023/10/19 12:18:08;;;;;;;95.53;41.53;;;15.70;88.80;;;;;;5069458;28;21310;-78
2023/10/19 12:20:36;;;;;;;100.93;44.97;;;15.70;88.80;;;;;;5072669;28;20526;-78
2023/10/19 12:23:05;;;;;;;100.33;45.67;;;15.70;88.80;;;;;;5075194;28;20466;-79
2023/10/19 12:25:34;;;;;;;102.40;43.33;;;15.70;88.80;;;;;;5071543;28;20465;-79
2023/10/19 12:28:21;;;;;;;104.27;43.83;;;15.80;88.80;;;;;;5074569;28;20450;-79
2023/10/19 12:30:49;;;;;;;97.57;45.73;;;15.80;88.70;;;;;;5074767;28;20500;-79
2023/10/19 12:33:19;;;;;;;102.97;44.17;;;15.80;88.80;;;;;;5071742;28;20475;-80
2023/10/19 12:35:53;;;;;;;114.67;47.53;;;15.80;88.80;;;;;;5071692;28;20454;-77
2023/10/19 12:38:21;;;;;;;107.77;45.80;;;15.80;88.80;;;;;;5072463;28;20919;-80
2023/10/19 12:40:51;;;;;;;97.53;46.27;;;15.80;88.80;;;;;;5074113;28;20480;-78
2023/10/19 12:43:21;;;;;;;95.23;44.17;;;15.80;88.80;;;;;;5065662;28;20453;-79